createdAt,value
2022-09-13T00:01:33.841Z,96560.00
2022-09-13T00:04:01.139Z,96549.00
2022-09-13T00:06:28.270Z,96559.00
2022-09-13T00:08:55.426Z,96555.00
2022-09-13T00:11:25.534Z,96544.00
2022-09-13T00:13:53.784Z,96549.00
2022-09-13T00:16:24.475Z,96552.00
2022-09-13T00:18:53.131Z,96552.00
2022-09-13T00:21:22.586Z,96553.00
2022-09-13T00:23:51.863Z,96554.00
2022-09-13T00:26:24.790Z,96560.00
2022-09-13T00:28:57.251Z,96567.00
2022-09-13T00:31:27.433Z,96568.00
2022-09-13T00:33:55.343Z,96559.00
2022-09-13T00:36:22.567Z,96558.00
2022-09-13T00:38:49.718Z,96555.00
2022-09-13T00:41:18.964Z,96545.00
2022-09-13T00:43:58.439Z,96541.00
2022-09-13T00:46:44.589Z,96554.00
2022-09-13T00:49:21.571Z,96558.00
2022-09-13T00:51:53.163Z,96554.00
2022-09-13T00:54:24.221Z,96555.00
2022-09-13T00:56:57.462Z,96568.00
2022-09-13T00:59:43.419Z,96566.00
2022-09-13T01:02:11.080Z,96569.00
2022-09-13T01:07:27.709Z,96572.00
2022-09-13T01:10:25.369Z,96572.00
2022-09-13T01:13:29.175Z,96575.00
2022-09-13T01:16:10.454Z,96568.00
2022-09-13T01:18:46.796Z,96563.00
2022-09-13T01:21:29.160Z,96558.00
2022-09-13T01:24:27.657Z,96556.00
2022-09-13T01:27:27.609Z,96549.00
2022-09-13T01:30:48.972Z,96558.00
2022-09-13T01:33:16.095Z,96560.00
2022-09-13T01:36:32.713Z,96557.00
2022-09-13T01:39:02.644Z,96560.00
2022-09-13T01:41:44.654Z,96564.00
2022-09-13T01:44:21.623Z,96573.00
2022-09-13T01:47:10.093Z,96571.00
2022-09-13T01:49:46.973Z,96571.00
2022-09-13T01:52:42.828Z,96582.00
2022-09-13T01:55:33.956Z,96587.00
2022-09-13T01:58:26.942Z,96590.00
2022-09-13T02:01:18.168Z,96587.00
2022-09-13T02:03:48.569Z,96591.00
2022-09-13T02:06:20.101Z,96586.00
2022-09-13T02:08:54.237Z,96591.00
2022-09-13T02:11:22.881Z,96578.00
2022-09-13T02:14:22.933Z,96587.00
2022-09-13T02:16:57.777Z,96582.00
2022-09-13T02:19:42.069Z,96586.00
2022-09-13T02:22:11.627Z,96577.00
2022-09-13T02:24:42.650Z,96577.00
2022-09-13T02:27:11.797Z,96579.00
2022-09-13T02:29:42.038Z,96574.00
2022-09-13T02:32:22.484Z,96573.00
2022-09-13T02:34:57.328Z,96567.00
2022-09-13T02:37:27.514Z,96569.00
2022-09-13T02:40:03.725Z,96563.00
2022-09-13T02:42:33.080Z,96560.00
2022-09-13T02:45:00.732Z,96560.00
2022-09-13T02:47:57.417Z,96554.00
2022-09-13T02:50:28.213Z,96555.00
2022-09-13T02:53:45.556Z,96555.00
2022-09-13T02:56:31.547Z,96548.00
2022-09-13T02:59:01.769Z,96539.00
2022-09-13T03:01:29.073Z,96542.00
2022-09-13T03:03:56.419Z,96538.00
2022-09-13T03:06:25.122Z,96536.00
2022-09-13T03:08:53.358Z,96534.00
2022-09-13T03:11:32.943Z,96529.00
2022-09-13T03:14:11.962Z,96524.00
2022-09-13T03:17:07.481Z,96531.00
2022-09-13T03:19:48.687Z,96528.00
2022-09-13T03:22:19.365Z,96529.00
2022-09-13T03:24:57.677Z,96520.00
2022-09-13T03:27:54.941Z,96519.00
2022-09-13T03:30:22.102Z,96529.00
2022-09-13T03:33:20.541Z,96528.00
2022-09-13T03:36:16.342Z,96528.00
2022-09-13T03:38:50.695Z,96531.00
2022-09-13T03:41:24.805Z,96535.00
2022-09-13T03:43:58.715Z,96530.00
2022-09-13T03:46:31.078Z,96523.00
2022-09-13T03:49:06.742Z,96524.00
2022-09-13T03:51:34.167Z,96524.00
2022-09-13T03:54:04.743Z,96522.00
2022-09-13T03:56:32.089Z,96520.00
2022-09-13T03:58:59.257Z,96523.00
2022-09-13T04:01:27.115Z,96517.00
2022-09-13T04:03:56.810Z,96512.00
2022-09-13T04:06:24.454Z,96509.00
2022-09-13T04:08:51.653Z,96517.00
2022-09-13T04:11:21.213Z,96516.00
2022-09-13T04:13:48.428Z,96516.00
2022-09-13T04:16:15.701Z,96514.00
2022-09-13T04:18:42.871Z,96522.00
2022-09-13T04:21:10.022Z,96529.00
2022-09-13T04:23:37.193Z,96528.00
2022-09-13T04:26:06.157Z,96521.00
2022-09-13T04:28:33.355Z,96520.00
2022-09-13T04:31:00.480Z,96514.00
2022-09-13T04:33:27.615Z,96518.00
2022-09-13T04:35:59.520Z,96518.00
2022-09-13T04:38:27.036Z,96522.00
2022-09-13T04:40:55.337Z,96520.00
2022-09-13T04:43:23.180Z,96523.00
2022-09-13T04:45:50.726Z,96529.00
2022-09-13T04:48:18.043Z,96533.00
2022-09-13T04:50:45.222Z,96536.00
2022-09-13T04:53:12.538Z,96536.00
2022-09-13T04:55:39.709Z,96542.00
2022-09-13T04:58:06.903Z,96538.00
2022-09-13T05:00:34.375Z,96534.00
2022-09-13T05:03:01.683Z,96539.00
2022-09-13T05:05:29.333Z,96530.00
2022-09-13T05:07:56.495Z,96543.00
2022-09-13T05:10:24.330Z,96546.00
2022-09-13T05:12:52.034Z,96542.00
2022-09-13T05:15:19.251Z,96543.00
2022-09-13T05:17:46.391Z,96539.00
2022-09-13T05:20:13.577Z,96540.00
2022-09-13T05:22:40.706Z,96527.00
2022-09-13T05:25:08.439Z,96534.00
2022-09-13T05:27:35.699Z,96535.00
2022-09-13T05:30:03.154Z,96529.00
2022-09-13T05:32:32.078Z,96536.00
2022-09-13T05:34:59.248Z,96524.00
2022-09-13T05:37:26.379Z,96520.00
2022-09-13T05:40:10.661Z,96515.00
2022-09-13T05:42:38.692Z,96509.00
2022-09-13T05:45:06.615Z,96500.00
2022-09-13T05:47:33.759Z,96505.00
2022-09-13T05:50:44.802Z,96502.00
2022-09-13T05:52:54.298Z,96497.00
2022-09-13T05:55:22.206Z,96494.00
2022-09-13T05:57:50.081Z,96489.00
2022-09-13T06:00:17.658Z,96488.00
2022-09-13T06:02:44.833Z,96491.00
2022-09-13T06:05:12.566Z,96488.00
2022-09-13T06:07:43.313Z,96486.00
2022-09-13T06:10:11.544Z,96486.00
2022-09-13T06:12:38.793Z,96492.00
2022-09-13T06:15:06.383Z,96487.00
2022-09-13T06:17:33.510Z,96493.00
2022-09-13T06:20:00.647Z,96491.00
2022-09-13T06:22:33.031Z,96500.00
2022-09-13T06:25:00.542Z,96501.00
2022-09-13T06:27:29.242Z,96503.00
2022-09-13T06:29:56.373Z,96508.00
2022-09-13T06:32:23.481Z,96508.00
2022-09-13T06:34:50.621Z,96512.00
2022-09-13T06:37:17.747Z,96512.00
2022-09-13T06:39:44.916Z,96514.00
2022-09-13T06:42:12.083Z,96512.00
2022-09-13T06:44:39.217Z,96504.00
2022-09-13T06:47:06.374Z,96510.00
2022-09-13T06:49:33.502Z,96502.00
2022-09-13T06:52:00.611Z,96492.00
2022-09-13T06:54:27.742Z,96493.00
2022-09-13T06:56:54.902Z,96498.00
2022-09-13T06:59:22.140Z,96496.00
2022-09-13T07:01:49.439Z,96498.00
2022-09-13T07:04:19.402Z,96493.00
2022-09-13T07:06:48.181Z,96492.00
2022-09-13T07:09:21.388Z,96493.00
2022-09-13T07:11:49.858Z,96489.00
2022-09-13T07:14:19.270Z,96480.00
2022-09-13T07:16:46.896Z,96486.00
2022-09-13T07:19:32.171Z,96484.00
2022-09-13T07:21:59.516Z,96488.00
2022-09-13T07:24:27.195Z,96473.00
2022-09-13T07:26:54.445Z,96477.00
2022-09-13T07:29:23.669Z,96472.00
2022-09-13T07:31:52.992Z,96459.00
2022-09-13T07:34:22.392Z,96462.00
2022-09-13T07:36:50.058Z,96458.00
2022-09-13T07:39:22.070Z,96456.00
2022-09-13T07:41:50.003Z,96458.00
2022-09-13T07:44:17.201Z,96456.00
2022-09-13T07:46:44.443Z,96466.00
2022-09-13T07:49:13.870Z,96465.00
2022-09-13T07:51:42.774Z,96470.00
2022-09-13T07:54:18.309Z,96475.00
2022-09-13T07:56:45.752Z,96473.00
2022-09-13T07:59:17.138Z,96471.00
2022-09-13T08:01:46.699Z,96467.00
2022-09-13T08:04:19.849Z,96465.00
2022-09-13T08:06:47.451Z,96466.00
2022-09-13T08:09:15.488Z,96457.00
2022-09-13T08:11:52.712Z,96459.00
2022-09-13T08:14:21.732Z,96460.00
2022-09-13T08:16:48.957Z,96462.00
2022-09-13T08:19:18.248Z,96464.00
2022-09-13T08:21:45.997Z,96464.00
2022-09-13T08:24:18.628Z,96466.00
2022-09-13T08:26:46.377Z,96465.00
2022-09-13T08:29:14.666Z,96463.00
2022-09-13T08:31:41.996Z,96464.00
2022-09-13T08:34:12.849Z,96460.00
2022-09-13T08:36:41.111Z,96450.00
2022-09-13T08:39:08.723Z,96456.00
2022-09-13T08:41:48.750Z,96456.00
2022-09-13T08:44:23.697Z,96459.00
2022-09-13T08:46:51.064Z,96456.00
2022-09-13T08:49:26.650Z,96460.00
2022-09-13T08:52:03.421Z,96450.00
2022-09-13T08:54:30.575Z,96446.00
2022-09-13T08:57:11.671Z,96454.00
2022-09-13T08:59:39.398Z,96449.00
2022-09-13T09:02:23.733Z,96451.00
2022-09-13T09:05:04.885Z,96473.00
2022-09-13T09:07:38.117Z,96475.00
2022-09-13T09:10:15.277Z,96474.00
2022-09-13T09:12:54.972Z,96474.00
2022-09-13T09:15:36.254Z,96486.00
2022-09-13T09:18:18.417Z,96486.00
2022-09-13T09:20:50.785Z,96491.00
2022-09-13T09:23:25.347Z,96506.00
2022-09-13T09:26:14.624Z,96508.00
2022-09-13T09:28:41.760Z,96518.00
2022-09-13T09:31:16.387Z,96528.00
2022-09-13T09:33:55.479Z,96519.00
2022-09-13T09:36:51.883Z,96535.00
2022-09-13T09:39:19.095Z,96530.00
2022-09-13T09:41:46.766Z,96525.00
2022-09-13T09:44:21.075Z,96524.00
2022-09-13T09:46:57.150Z,96513.00
2022-09-13T09:50:02.663Z,96508.00
2022-09-13T09:52:40.670Z,96497.00
2022-09-13T09:55:27.827Z,96491.00
2022-09-13T09:58:11.236Z,96495.00
2022-09-13T10:00:51.892Z,96495.00
2022-09-13T10:06:33.093Z,96479.00
2022-09-13T10:09:05.802Z,96475.00
2022-09-13T10:12:00.340Z,96469.00
2022-09-13T10:15:00.387Z,96466.00
2022-09-13T10:17:58.396Z,96467.00
2022-09-13T10:21:03.106Z,96453.00
2022-09-13T10:24:02.414Z,96451.00
2022-09-13T10:27:03.392Z,96442.00
2022-09-13T10:30:04.003Z,96443.00
2022-09-13T10:32:31.124Z,96442.00
2022-09-13T10:35:08.175Z,96440.00
2022-09-13T10:37:36.235Z,96445.00
2022-09-13T10:40:03.957Z,96441.00
2022-09-13T10:42:31.300Z,96428.00
2022-09-13T10:45:08.898Z,96431.00
2022-09-13T10:47:47.871Z,96427.00
2022-09-13T10:50:23.031Z,96424.00
2022-09-13T10:52:55.147Z,96422.00
2022-09-13T10:55:35.163Z,96412.00
2022-09-13T10:58:02.270Z,96419.00
2022-09-13T11:00:39.608Z,96407.00
2022-09-13T11:03:16.642Z,96406.00
2022-09-13T11:05:53.703Z,96408.00
2022-09-13T11:08:33.232Z,96396.00
2022-09-13T11:11:15.686Z,96392.00
2022-09-13T11:14:13.508Z,96397.00
2022-09-13T11:17:25.751Z,96396.00
2022-09-13T11:20:28.202Z,96398.00
2022-09-13T11:23:05.289Z,96398.00
2022-09-13T11:25:50.560Z,96388.00
2022-09-13T11:28:29.741Z,96383.00
2022-09-13T11:31:17.454Z,96393.00
2022-09-13T11:34:09.508Z,96385.00
2022-09-13T11:37:10.740Z,96390.00
2022-09-13T11:39:38.821Z,96388.00
2022-09-13T11:42:46.533Z,96382.00
2022-09-13T11:45:24.616Z,96387.00
2022-09-13T11:48:15.787Z,96385.00
2022-09-13T11:51:18.877Z,96388.00
2022-09-13T11:53:58.281Z,96387.00
2022-09-13T11:56:48.501Z,96394.00
2022-09-13T11:59:41.868Z,96388.00
2022-09-13T12:02:38.581Z,96387.00
2022-09-13T12:05:22.841Z,96398.00
2022-09-13T12:07:54.915Z,96382.00
2022-09-13T12:10:48.307Z,96384.00
2022-09-13T12:13:30.617Z,96384.00
2022-09-13T12:16:00.971Z,96385.00
2022-09-13T12:18:32.248Z,96396.00
2022-09-13T12:21:14.463Z,96386.00
2022-09-13T12:23:50.474Z,96400.00
2022-09-13T12:26:27.007Z,96387.00
2022-09-13T12:28:59.822Z,96387.00
2022-09-13T12:31:29.451Z,96379.00
2022-09-13T12:33:57.073Z,96390.00
2022-09-13T12:36:49.274Z,96387.00
2022-09-13T12:39:31.517Z,96384.00
2022-09-13T12:42:38.159Z,96384.00
2022-09-13T12:45:16.548Z,96378.00
2022-09-13T12:47:55.650Z,96382.00
2022-09-13T12:50:44.563Z,96380.00
2022-09-13T12:53:31.952Z,96380.00
2022-09-13T12:56:11.068Z,96379.00
2022-09-13T12:58:50.371Z,96382.00
2022-09-13T13:01:25.359Z,96387.00
2022-09-13T13:04:17.149Z,96390.00
2022-09-13T13:07:03.887Z,96390.00
2022-09-13T13:09:34.069Z,96387.00
2022-09-13T13:12:01.172Z,96377.00
2022-09-13T13:14:39.186Z,96377.00
2022-09-13T13:17:43.747Z,96382.00
2022-09-13T13:20:46.947Z,96379.00
2022-09-13T13:23:25.237Z,96373.00
2022-09-13T13:26:20.226Z,96370.00
2022-09-13T13:28:47.646Z,96362.00
2022-09-13T13:31:30.177Z,96369.00
2022-09-13T13:34:20.794Z,96361.00
2022-09-13T13:36:50.541Z,96355.00
2022-09-13T13:39:24.029Z,96361.00
2022-09-13T13:41:57.215Z,96360.00
2022-09-13T13:44:24.318Z,96358.00
2022-09-13T13:46:52.984Z,96351.00
2022-09-13T13:49:32.136Z,96348.00
2022-09-13T13:52:25.447Z,96348.00
2022-09-13T13:54:57.291Z,96341.00
2022-09-13T13:57:25.999Z,96336.00
2022-09-13T14:00:01.572Z,96331.00
2022-09-13T14:02:50.872Z,96320.00
2022-09-13T14:05:48.492Z,96302.00
2022-09-13T14:08:37.774Z,96303.00
2022-09-13T14:11:20.517Z,96303.00
2022-09-13T14:13:53.974Z,96301.00
2022-09-13T14:16:39.186Z,96295.00
2022-09-13T14:19:15.443Z,96288.00
2022-09-13T14:21:42.756Z,96289.00
2022-09-13T14:24:23.502Z,96283.00
2022-09-13T14:26:58.107Z,96282.00
2022-09-13T14:29:26.165Z,96278.00
2022-09-13T14:31:55.322Z,96279.00
2022-09-13T14:34:24.842Z,96274.00
2022-09-13T14:36:54.636Z,96276.00
2022-09-13T14:39:22.328Z,96269.00
2022-09-13T14:41:50.157Z,96271.00
2022-09-13T14:44:28.997Z,96268.00
2022-09-13T14:47:02.153Z,96266.00
2022-09-13T14:49:34.176Z,96264.00
2022-09-13T14:52:05.887Z,96263.00
2022-09-13T14:54:44.636Z,96260.00
2022-09-13T14:57:24.017Z,96263.00
2022-09-13T14:59:54.262Z,96267.00
2022-09-13T15:02:25.663Z,96267.00
2022-09-13T15:04:55.558Z,96259.00
2022-09-13T15:07:27.855Z,96250.00
2022-09-13T15:10:07.299Z,96249.00
2022-09-13T15:12:35.535Z,96245.00
2022-09-13T15:15:26.829Z,96245.00
2022-09-13T15:18:00.493Z,96239.00
2022-09-13T15:20:48.941Z,96232.00
2022-09-13T15:23:38.760Z,96232.00
2022-09-13T15:26:26.483Z,96229.00
2022-09-13T15:28:59.043Z,96236.00
2022-09-13T15:31:28.921Z,96233.00
2022-09-13T15:34:18.118Z,96219.00
2022-09-13T15:37:12.077Z,96228.00
2022-09-13T15:39:51.135Z,96236.00
2022-09-13T15:42:18.415Z,96238.00
2022-09-13T15:44:45.605Z,96242.00
2022-09-13T15:47:17.209Z,96243.00
2022-09-13T15:49:50.267Z,96234.00
2022-09-13T15:52:18.934Z,96216.00
2022-09-13T15:54:49.228Z,96212.00
2022-09-13T15:57:21.384Z,96211.00
2022-09-13T15:59:48.960Z,96205.00
2022-09-13T16:02:28.613Z,96199.00
2022-09-13T16:04:56.555Z,96195.00
2022-09-13T16:07:24.778Z,96196.00
2022-09-13T16:09:52.504Z,96199.00
2022-09-13T16:12:23.396Z,96197.00
2022-09-13T16:14:50.775Z,96193.00
2022-09-13T16:17:22.556Z,96190.00
2022-09-13T16:19:50.048Z,96180.00
2022-09-13T16:22:17.438Z,96174.00
2022-09-13T16:24:58.964Z,96170.00
2022-09-13T16:27:35.659Z,96173.00
2022-09-13T16:30:03.029Z,96170.00
2022-09-13T16:32:49.014Z,96170.00
2022-09-13T16:35:38.310Z,96167.00
2022-09-13T16:38:05.591Z,96170.00
2022-09-13T16:40:59.383Z,96179.00
2022-09-13T16:43:57.635Z,96184.00
2022-09-13T16:46:26.002Z,96171.00
2022-09-13T16:49:00.697Z,96163.00
2022-09-13T16:51:55.215Z,96168.00
2022-09-13T16:54:22.336Z,96162.00
2022-09-13T16:56:49.658Z,96171.00
2022-09-13T16:59:17.426Z,96166.00
2022-09-13T17:01:44.737Z,96171.00
2022-09-13T17:04:11.942Z,96168.00
2022-09-13T17:06:39.071Z,96169.00
2022-09-13T17:09:07.287Z,96171.00
2022-09-13T17:11:37.756Z,96168.00
2022-09-13T17:14:05.948Z,96169.00
2022-09-13T17:16:36.136Z,96171.00
2022-09-13T17:19:06.839Z,96171.00
2022-09-13T17:21:34.845Z,96178.00
2022-09-13T17:24:02.151Z,96170.00
2022-09-13T17:26:29.893Z,96178.00
2022-09-13T17:28:57.057Z,96188.00
2022-09-13T17:31:24.432Z,96183.00
2022-09-13T17:33:53.110Z,96180.00
2022-09-13T17:36:20.879Z,96188.00
2022-09-13T17:38:48.523Z,96188.00
2022-09-13T17:41:18.078Z,96187.00
2022-09-13T17:43:46.390Z,96188.00
2022-09-13T17:46:21.612Z,96188.00
2022-09-13T17:48:53.464Z,96192.00
2022-09-13T17:51:23.062Z,96191.00
2022-09-13T17:54:02.007Z,96189.00
2022-09-13T17:56:40.601Z,96191.00
2022-09-13T17:59:13.950Z,96194.00
2022-09-13T18:01:43.450Z,96195.00
2022-09-13T18:04:11.525Z,96195.00
2022-09-13T18:06:45.028Z,96197.00
2022-09-13T18:09:13.915Z,96181.00
2022-09-13T18:11:41.464Z,96180.00
2022-09-13T18:14:12.652Z,96172.00
2022-09-13T18:16:40.516Z,96174.00
2022-09-13T18:19:07.760Z,96179.00
2022-09-13T18:21:34.947Z,96180.00
2022-09-13T18:24:02.279Z,96182.00
2022-09-13T18:26:31.345Z,96189.00
2022-09-13T18:29:02.688Z,96206.00
2022-09-13T18:31:31.338Z,96206.00
2022-09-13T18:34:00.909Z,96211.00
2022-09-13T18:36:29.488Z,96211.00
2022-09-13T18:38:57.169Z,96216.00
2022-09-13T18:41:26.884Z,96216.00
2022-09-13T18:43:55.911Z,96215.00
2022-09-13T18:46:30.128Z,96214.00
2022-09-13T18:48:57.807Z,96213.00
2022-09-13T18:51:33.637Z,96213.00
2022-09-13T18:54:01.598Z,96209.00
2022-09-13T18:56:29.351Z,96218.00
2022-09-13T18:58:58.631Z,96215.00
2022-09-13T19:01:28.448Z,96220.00
2022-09-13T19:03:56.737Z,96219.00
2022-09-13T19:06:41.522Z,96229.00
2022-09-13T19:09:09.778Z,96223.00
2022-09-13T19:11:46.922Z,96216.00
2022-09-13T19:14:22.875Z,96218.00
2022-09-13T19:16:50.610Z,96220.00
2022-09-13T19:19:17.755Z,96215.00
2022-09-13T19:21:45.201Z,96215.00
2022-09-13T19:24:17.601Z,96208.00
2022-09-13T19:26:46.836Z,96207.00
2022-09-13T19:29:16.254Z,96215.00
2022-09-13T19:31:47.928Z,96211.00
2022-09-13T19:34:17.327Z,96213.00
2022-09-13T19:36:44.916Z,96227.00
2022-09-13T19:39:12.430Z,96228.00
2022-09-13T19:41:40.270Z,96219.00
2022-09-13T19:44:08.387Z,96233.00
2022-09-13T19:46:38.103Z,96230.00
2022-09-13T19:49:06.239Z,96232.00
2022-09-13T19:51:35.863Z,96230.00
2022-09-13T19:54:04.195Z,96235.00
2022-09-13T19:56:33.894Z,96235.00
2022-09-13T19:59:01.730Z,96233.00
2022-09-13T20:01:31.767Z,96245.00
2022-09-13T20:04:01.415Z,96239.00
2022-09-13T20:06:33.443Z,96235.00
2022-09-13T20:09:02.742Z,96240.00
2022-09-13T20:11:30.062Z,96244.00
2022-09-13T20:13:59.289Z,96230.00
2022-09-13T20:16:33.957Z,96237.00
2022-09-13T20:19:02.040Z,96238.00
2022-09-13T20:21:31.974Z,96243.00
2022-09-13T20:24:05.352Z,96247.00
2022-09-13T20:26:35.705Z,96237.00
2022-09-13T20:29:05.588Z,96234.00
2022-09-13T20:31:35.940Z,96233.00
2022-09-13T20:34:05.051Z,96244.00
2022-09-13T20:36:34.180Z,96240.00
2022-09-13T20:39:03.651Z,96221.00
2022-09-13T20:41:31.565Z,96220.00
2022-09-13T20:44:01.753Z,96215.00
2022-09-13T20:46:31.515Z,96209.00
2022-09-13T20:48:59.074Z,96213.00
2022-09-13T20:51:28.114Z,96216.00
2022-09-13T20:54:00.277Z,96216.00
2022-09-13T20:56:28.695Z,96214.00
2022-09-13T20:58:59.792Z,96208.00
2022-09-13T21:01:28.632Z,96210.00
2022-09-13T21:03:56.504Z,96201.00
2022-09-13T21:06:25.692Z,96204.00
2022-09-13T21:08:53.323Z,96211.00
2022-09-13T21:11:23.298Z,96205.00
2022-09-13T21:13:55.899Z,96206.00
2022-09-13T21:16:25.378Z,96206.00
2022-09-13T21:18:53.713Z,96207.00
2022-09-13T21:21:24.052Z,96204.00
2022-09-13T21:23:51.558Z,96211.00
2022-09-13T21:26:21.731Z,96208.00
2022-09-13T21:28:49.455Z,96201.00
2022-09-13T21:31:21.652Z,96200.00
2022-09-13T21:33:53.524Z,96196.00
2022-09-13T21:36:22.963Z,96189.00
2022-09-13T21:38:51.517Z,96194.00
2022-09-13T21:41:19.173Z,96188.00
2022-09-13T21:43:46.686Z,96182.00
2022-09-13T21:46:19.468Z,96179.00
2022-09-13T21:48:50.892Z,96183.00
2022-09-13T21:51:26.519Z,96179.00
2022-09-13T21:53:59.607Z,96172.00
2022-09-13T21:56:28.931Z,96179.00
2022-09-13T21:58:59.338Z,96178.00
2022-09-13T22:01:29.436Z,96174.00
2022-09-13T22:03:57.208Z,96170.00
2022-09-13T22:06:24.559Z,96169.00
2022-09-13T22:08:56.555Z,96173.00
2022-09-13T22:11:26.787Z,96178.00
2022-09-13T22:13:54.922Z,96170.00
2022-09-13T22:16:33.193Z,96167.00
2022-09-13T22:19:08.498Z,96173.00
2022-09-13T22:21:38.459Z,96168.00
2022-09-13T22:24:07.238Z,96166.00
2022-09-13T22:26:36.943Z,96166.00
2022-09-13T22:29:04.955Z,96163.00
2022-09-13T22:31:34.395Z,96159.00
2022-09-13T22:34:02.126Z,96158.00
2022-09-13T22:36:29.308Z,96160.00
2022-09-13T22:38:56.964Z,96158.00
2022-09-13T22:41:26.633Z,96163.00
2022-09-13T22:43:54.174Z,96155.00
2022-09-13T22:46:24.961Z,96154.00
2022-09-13T22:48:53.844Z,96150.00
2022-09-13T22:51:21.594Z,96147.00
2022-09-13T22:53:50.308Z,96143.00
2022-09-13T22:56:26.209Z,96142.00
2022-09-13T22:58:55.106Z,96141.00
2022-09-13T23:01:22.801Z,96149.00
2022-09-13T23:03:50.362Z,96140.00
2022-09-13T23:06:21.087Z,96148.00
2022-09-13T23:08:49.508Z,96147.00
2022-09-13T23:11:21.923Z,96153.00
2022-09-13T23:13:51.565Z,96151.00
2022-09-13T23:16:22.643Z,96158.00
2022-09-13T23:18:50.307Z,96151.00
2022-09-13T23:21:20.604Z,96146.00
2022-09-13T23:23:48.067Z,96150.00
2022-09-13T23:26:19.066Z,96147.00
2022-09-13T23:28:51.478Z,96139.00
2022-09-13T23:31:20.732Z,96143.00
2022-09-13T23:33:49.818Z,96138.00
2022-09-13T23:36:20.565Z,96127.00
2022-09-13T23:42:50.665Z,96109.00
2022-09-13T23:45:29.152Z,96110.00
2022-09-13T23:47:56.323Z,96102.00
2022-09-13T23:50:23.548Z,96097.00
2022-09-13T23:52:50.715Z,96090.00
2022-09-13T23:55:18.024Z,96107.00
2022-09-13T23:57:45.182Z,96116.00
